Time;durP1;ratioP1;P1;durP2;ratioP2;P2;SDS_P1;SDS_P2;PMS_P1;PMS_P2;Temp;Humidity;BMP_temperature;BMP_pressure;BME280_temperature;BME280_humidity;BME280_pressure;Samples;Min_cycle;Max_cycle;Signal;HPM_P1;HPM_P2
2021/06/10 00:04:31;;;;;;;1.03;0.90;;;21.10;99.90;;;;;;20989586;28;20763;-67
2021/06/10 00:14:35;;;;;;;0.53;0.53;;;20.90;99.90;;;;;;20986738;28;20296;-68
2021/06/10 00:24:39;;;;;;;1.63;1.00;;;21.30;99.90;;;;;;20987098;28;20252;-68
2021/06/10 00:34:43;;;;;;;1.33;0.80;;;21.00;99.90;;;;;;20986224;28;20609;-67
2021/06/10 00:44:48;;;;;;;1.70;1.23;;;21.20;99.90;;;;;;20985191;28;20224;-67
2021/06/10 00:54:51;;;;;;;3.33;0.70;;;21.40;99.90;;;;;;20984313;28;20196;-66
2021/06/10 01:04:55;;;;;;;1.10;1.00;;;21.40;99.90;;;;;;20985282;28;20327;-66
2021/06/10 01:15:05;;;;;;;1.50;0.90;;;21.40;99.90;;;;;;20983545;28;20669;-65
2021/06/10 01:25:20;;;;;;;1.70;1.07;;;21.50;99.90;;;;;;20983406;28;20208;-66
2021/06/10 01:35:28;;;;;;;1.43;0.93;;;21.50;99.90;;;;;;20982919;28;20199;-66
2021/06/10 01:45:31;;;;;;;1.50;0.90;;;21.30;99.90;;;;;;20982708;28;20753;-67
2021/06/10 01:55:38;;;;;;;1.03;0.80;;;21.60;99.90;;;;;;20964748;28;20193;-66
2021/06/10 02:05:42;;;;;;;3.93;1.00;;;21.60;99.90;;;;;;20982691;28;20242;-68
2021/06/10 02:15:47;;;;;;;1.97;1.40;;;21.50;99.90;;;;;;20992223;28;20428;-68
2021/06/10 02:25:50;;;;;;;0.63;0.63;;;21.40;99.90;;;;;;20995467;28;20692;-68
2021/06/10 02:35:54;;;;;;;1.13;0.70;;;21.40;99.90;;;;;;20994652;28;20287;-68
2021/06/10 02:46:00;;;;;;;0.60;0.60;;;21.40;99.90;;;;;;20993018;28;20315;-68
2021/06/10 02:56:07;;;;;;;0.90;0.70;;;21.40;99.90;;;;;;20994336;28;20242;-67
2021/06/10 03:06:11;;;;;;;1.07;0.97;;;21.40;99.90;;;;;;20993930;28;20311;-67
2021/06/10 03:16:15;;;;;;;1.50;1.10;;;21.20;99.90;;;;;;20992330;28;20284;-67
2021/06/10 03:26:20;;;;;;;1.17;1.03;;;21.30;99.90;;;;;;20991238;28;20225;-67
2021/06/10 03:36:26;;;;;;;1.47;0.93;;;21.00;99.90;;;;;;20991023;28;20276;-67
2021/06/10 03:46:29;;;;;;;1.30;1.13;;;21.00;99.90;;;;;;20989279;28;20760;-67
2021/06/10 03:56:35;;;;;;;3.17;1.77;;;20.90;99.90;;;;;;20987897;28;20392;-66
2021/06/10 04:06:38;;;;;;;1.43;1.00;;;20.90;99.90;;;;;;20988004;28;20224;-67
2021/06/10 04:16:42;;;;;;;1.37;0.80;;;20.70;99.90;;;;;;20985244;28;20201;-67
2021/06/10 04:26:45;;;;;;;2.33;1.43;;;20.90;99.90;;;;;;20986028;28;20319;-67
2021/06/10 04:36:50;;;;;;;0.53;0.53;;;20.80;99.90;;;;;;20984671;28;20197;-68
2021/06/10 04:46:53;;;;;;;1.10;1.07;;;20.80;99.90;;;;;;20983369;28;20220;-67
2021/06/10 04:56:57;;;;;;;1.53;0.97;;;20.90;99.90;;;;;;20979399;28;20531;-66
2021/06/10 05:07:00;;;;;;;1.97;1.73;;;21.20;99.90;;;;;;20983646;28;20228;-67
2021/06/10 05:17:06;;;;;;;7.73;0.83;;;21.20;99.90;;;;;;20982037;28;20189;-67
2021/06/10 05:27:09;;;;;;;2.13;0.90;;;21.40;99.90;;;;;;20981738;28;20290;-67
2021/06/10 05:37:14;;;;;;;2.43;1.17;;;21.80;99.90;;;;;;20980716;28;20238;-68
2021/06/10 05:47:17;;;;;;;4.73;1.33;;;22.00;99.90;;;;;;20991731;28;20231;-66
2021/06/10 05:57:22;;;;;;;1.20;0.90;;;22.40;99.90;;;;;;20995653;28;20284;-69
2021/06/10 06:07:25;;;;;;;3.80;1.13;;;22.70;99.90;;;;;;20930702;28;20240;-66
2021/06/10 06:17:30;;;;;;;3.30;1.13;;;23.20;99.90;;;;;;20961962;28;20201;-66
2021/06/10 06:27:33;;;;;;;1.00;0.90;;;23.50;99.90;;;;;;20923740;28;20629;-67
2021/06/10 06:37:38;;;;;;;1.85;0.98;;;23.70;99.90;;;;;;20978816;28;20488;-66
2021/06/10 06:47:41;;;;;;;1.10;1.02;;;24.30;99.90;;;;;;20911517;28;20221;-65
2021/06/10 06:57:46;;;;;;;3.50;1.52;;;24.40;99.90;;;;;;20922068;28;20247;-65
2021/06/10 07:07:49;;;;;;;1.23;1.13;;;24.40;99.90;;;;;;20954042;28;20233;-63
2021/06/10 07:17:54;;;;;;;2.97;1.42;;;24.70;99.90;;;;;;20927349;28;20603;-66
2021/06/10 07:27:59;;;;;;;2.17;1.55;;;24.60;99.90;;;;;;20942954;28;20217;-66
2021/06/10 07:38:05;;;;;;;1.48;1.33;;;24.70;99.90;;;;;;20962139;28;20536;-65
2021/06/10 07:48:08;;;;;;;2.03;1.65;;;24.40;99.90;;;;;;20922196;28;20249;-64
2021/06/10 07:58:13;;;;;;;1.95;1.80;;;24.50;99.90;;;;;;20933608;28;20201;-64
2021/06/10 08:08:16;;;;;;;1.02;0.90;;;24.70;99.90;;;;;;20983083;28;20311;-63
2021/06/10 08:18:21;;;;;;;1.17;1.08;;;25.10;99.90;;;;;;20985191;28;20193;-63
2021/06/10 08:28:24;;;;;;;1.38;1.27;;;25.30;99.90;;;;;;20906434;28;20260;-63
2021/06/10 08:38:29;;;;;;;1.00;0.82;;;25.60;99.90;;;;;;20911803;28;20197;-63
2021/06/10 08:48:33;;;;;;;2.72;1.63;;;25.80;99.90;;;;;;20939530;28;20217;-62
2021/06/10 08:58:38;;;;;;;3.85;1.92;;;26.00;99.90;;;;;;20978483;28;20286;-61
2021/06/10 09:08:43;;;;;;;1.98;1.75;;;26.00;99.90;;;;;;20977948;28;20232;-62
2021/06/10 09:18:57;;;;;;;3.13;2.13;;;25.90;99.90;;;;;;20978405;28;20303;-63
2021/06/10 09:29:06;;;;;;;2.42;2.13;;;26.10;99.90;;;;;;20898542;28;20263;-63
2021/06/10 09:39:14;;;;;;;1.40;1.23;;;26.50;99.90;;;;;;20979099;28;20598;-61
2021/06/10 09:49:17;;;;;;;3.40;2.25;;;26.40;99.90;;;;;;20960082;28;20361;-63
2021/06/10 09:59:44;;;;;;;2.63;1.88;;;26.30;99.90;;;;;;20977615;28;20193;-63
2021/06/10 10:09:48;;;;;;;2.22;1.65;;;25.90;99.90;;;;;;20974829;28;20554;-64
2021/06/10 10:19:52;;;;;;;5.05;2.58;;;26.80;99.90;;;;;;20973878;28;20666;-62
2021/06/10 10:29:56;;;;;;;4.05;2.72;;;26.70;99.90;;;;;;20978507;28;20273;-62
2021/06/10 10:40:02;;;;;;;9.45;3.15;;;26.70;99.90;;;;;;20971647;28;20283;-62
2021/06/10 10:50:06;;;;;;;5.22;2.20;;;26.80;99.90;;;;;;20970670;28;20591;-63
2021/06/10 11:00:18;;;;;;;6.47;1.52;;;26.80;99.90;;;;;;20988014;28;20246;-62
2021/06/10 11:10:59;;;;;;;0.50;0.50;;;27.50;99.90;;;;;;20967007;28;20216;-64
2021/06/10 11:21:04;;;;;;;1.05;1.00;;;27.70;99.90;;;;;;20983176;28;20204;-61
2021/06/10 11:31:15;;;;;;;1.23;0.90;;;29.10;99.90;;;;;;20985367;28;20781;-62
2021/06/10 11:41:21;;;;;;;1.58;0.88;;;30.00;99.90;;;;;;20981317;28;20184;-64
2021/06/10 11:51:27;;;;;;;1.63;1.40;;;30.00;99.90;;;;;;20983770;28;20274;-64
2021/06/10 12:01:32;;;;;;;1.60;1.17;;;30.80;99.90;;;;;;20983859;28;20315;-63
2021/06/10 12:11:35;;;;;;;2.67;1.10;;;31.10;99.90;;;;;;20984175;28;20577;-64
2021/06/10 12:21:39;;;;;;;1.38;1.27;;;32.00;99.90;;;;;;20981398;28;20224;-64
2021/06/10 12:31:43;;;;;;;1.13;0.82;;;32.10;99.90;;;;;;20982395;28;20248;-63
2021/06/10 12:41:49;;;;;;;1.25;1.08;;;32.40;99.90;;;;;;20983174;28;20266;-63
2021/06/10 12:51:53;;;;;;;1.13;0.50;;;32.90;99.90;;;;;;20980808;28;20265;-65
2021/06/10 13:02:16;;;;;;;1.63;0.80;;;33.10;99.90;;;;;;20981589;28;20254;-63
2021/06/10 13:12:24;;;;;;;1.33;1.20;;;34.00;99.90;;;;;;20980161;28;20215;-63
2021/06/10 13:22:28;;;;;;;4.03;1.20;;;32.70;99.90;;;;;;20962443;28;20200;-63
2021/06/10 13:32:36;;;;;;;2.78;0.93;;;32.20;99.90;;;;;;20948848;28;20229;-63
2021/06/10 13:42:42;;;;;;;2.75;1.27;;;33.40;99.90;;;;;;20976979;28;20204;-64
2021/06/10 13:52:45;;;;;;;3.28;1.17;;;32.70;99.90;;;;;;20975893;28;20221;-65
2021/06/10 14:02:49;;;;;;;2.67;1.30;;;32.70;99.90;;;;;;20977396;28;20315;-64
2021/06/10 14:12:52;;;;;;;2.73;1.40;;;31.60;99.90;;;;;;20987781;28;20458;-64
2021/06/10 14:22:57;;;;;;;1.27;1.05;;;32.90;99.90;;;;;;20990074;28;20216;-64
2021/06/10 14:33:01;;;;;;;2.90;1.13;;;33.50;99.90;;;;;;20971295;28;20307;-64
2021/06/10 14:43:05;;;;;;;1.52;0.88;;;32.70;99.90;;;;;;20987833;28;20212;-63
2021/06/10 14:53:09;;;;;;;1.73;1.23;;;33.60;99.90;;;;;;20968232;28;20221;-66
2021/06/10 15:03:14;;;;;;;1.35;1.10;;;33.10;99.90;;;;;;20965920;28;20247;-62
2021/06/10 15:13:17;;;;;;;1.42;1.23;;;33.00;99.90;;;;;;20935685;28;20326;-62
2021/06/10 15:23:22;;;;;;;2.58;1.35;;;32.40;99.90;;;;;;20966448;28;20323;-64
2021/06/10 15:33:25;;;;;;;1.55;0.88;;;32.50;99.90;;;;;;20984517;28;20228;-62
2021/06/10 15:43:30;;;;;;;2.00;1.13;;;33.00;99.90;;;;;;20982931;28;20227;-64
2021/06/10 15:53:33;;;;;;;5.35;1.25;;;33.20;99.90;;;;;;20959430;28;20315;-64
2021/06/10 16:03:38;;;;;;;1.25;0.82;;;33.20;99.90;;;;;;20964852;28;20220;-64
2021/06/10 16:13:45;;;;;;;1.52;0.90;;;33.20;99.90;;;;;;20981334;28;20263;-66
2021/06/10 16:23:49;;;;;;;1.80;0.90;;;33.00;99.90;;;;;;20940177;28;20188;-63
2021/06/10 16:33:52;;;;;;;4.22;1.60;;;32.80;99.90;;;;;;20960421;28;20217;-65
2021/06/10 16:43:57;;;;;;;2.88;1.40;;;32.00;99.90;;;;;;20932735;28;20209;-64
2021/06/10 16:54:00;;;;;;;1.58;1.25;;;32.60;99.90;;;;;;20949116;28;20235;-64
2021/06/10 17:04:05;;;;;;;2.30;1.48;;;32.40;99.90;;;;;;20978546;28;20292;-64
2021/06/10 17:14:09;;;;;;;2.58;1.30;;;33.50;99.90;;;;;;20979385;28;20304;-64
2021/06/10 17:24:14;;;;;;;2.47;1.63;;;32.80;99.90;;;;;;20936478;28;20189;-63
2021/06/10 17:34:17;;;;;;;1.13;1.00;;;33.10;99.90;;;;;;20895386;22;20320;-74
2021/06/10 17:44:25;;;;;;;2.00;1.20;;;32.90;99.90;;;;;;20828072;28;20221;-72
2021/06/10 17:54:29;;;;;;;1.35;1.05;;;29.40;99.90;;;;;;20834943;28;20599;-75
2021/06/10 18:04:37;;;;;;;1.10;0.90;;;29.40;99.90;;;;;;20896328;28;20234;-65
2021/06/10 18:14:42;;;;;;;1.75;1.50;;;29.70;99.90;;;;;;20854590;28;20197;-64
2021/06/10 18:24:47;;;;;;;1.10;1.00;;;29.90;99.90;;;;;;20867152;28;20585;-64
2021/06/10 18:34:51;;;;;;;1.38;0.80;;;27.20;99.90;;;;;;20897755;28;20221;-65
2021/06/10 18:44:55;;;;;;;1.33;0.95;;;26.70;99.90;;;;;;20823577;28;20750;-65
2021/06/10 18:54:58;;;;;;;1.33;0.98;;;26.50;99.90;;;;;;20829835;28;20197;-64
2021/06/10 19:05:03;;;;;;;9.55;0.90;;;26.30;99.90;;;;;;20900876;28;20233;-64
2021/06/10 19:15:08;;;;;;;1.10;0.70;;;25.70;99.90;;;;;;20895195;28;20194;-64
2021/06/10 19:25:17;;;;;;;2.30;0.88;;;26.00;99.90;;;;;;20842528;28;20222;-65
2021/06/10 19:35:24;;;;;;;1.42;0.90;;;26.10;99.90;;;;;;20748388;28;20321;-65
2021/06/10 19:45:29;;;;;;;1.27;1.00;;;26.00;99.90;;;;;;20744479;28;20231;-65
2021/06/10 19:55:33;;;;;;;1.42;0.75;;;25.80;99.90;;;;;;20772810;28;20195;-65
2021/06/10 20:05:40;;;;;;;0.80;0.75;;;25.40;99.90;;;;;;20768112;28;20305;-65
2021/06/10 20:15:44;;;;;;;3.17;1.70;;;25.30;99.90;;;;;;20813768;28;20204;-67
2021/06/10 20:25:51;;;;;;;14.63;6.70;;;25.70;99.90;;;;;;20792771;28;20191;-65
2021/06/10 20:35:55;;;;;;;0.80;0.80;;;25.60;99.90;;;;;;20813058;28;20305;-64
2021/06/10 20:46:00;;;;;;;2.33;0.80;;;25.40;99.90;;;;;;20816179;28;20288;-65
2021/06/10 20:56:06;;;;;;;0.80;0.70;;;25.60;99.90;;;;;;20816121;28;20212;-65
2021/06/10 21:06:11;;;;;;;3.05;1.38;;;25.50;99.90;;;;;;20817009;28;20208;-64
2021/06/10 21:16:15;;;;;;;1.33;1.02;;;25.50;99.90;;;;;;20815978;28;20774;-65
2021/06/10 21:26:19;;;;;;;1.25;1.10;;;25.40;99.90;;;;;;20811500;28;20293;-66
2021/06/10 21:36:24;;;;;;;0.95;0.77;;;25.00;99.90;;;;;;20862200;28;20325;-65
2021/06/10 21:46:31;;;;;;;1.27;0.90;;;25.00;99.90;;;;;;20885368;28;20208;-64
2021/06/10 21:56:35;;;;;;;0.50;0.50;;;25.10;99.90;;;;;;20907518;28;20240;-64
2021/06/10 22:06:40;;;;;;;0.90;0.68;;;24.80;99.90;;;;;;20816715;28;20198;-66
2021/06/10 22:16:46;;;;;;;2.72;1.23;;;24.70;99.90;;;;;;20835152;28;20540;-67
2021/06/10 22:26:53;;;;;;;0.87;0.80;;;24.60;99.90;;;;;;20867331;28;20633;-68
2021/06/10 22:37:00;;;;;;;2.30;0.97;;;24.60;99.90;;;;;;20839613;28;20630;-67
2021/06/10 22:47:08;;;;;;;0.90;0.70;;;24.00;99.90;;;;;;20828406;28;20186;-66
2021/06/10 22:57:21;;;;;;;1.70;1.13;;;24.10;99.90;;;;;;20845309;28;20218;-68
2021/06/10 23:07:37;;;;;;;3.33;1.20;;;23.80;99.90;;;;;;20867208;28;20475;-67
2021/06/10 23:17:43;;;;;;;0.93;0.83;;;23.70;99.90;;;;;;20865769;28;20279;-68
2021/06/10 23:27:48;;;;;;;2.30;1.20;;;23.50;99.90;;;;;;20861947;28;20226;-67
2021/06/10 23:37:51;;;;;;;0.67;0.60;;;23.30;99.90;;;;;;20813790;28;20226;-68
2021/06/10 23:47:57;;;;;;;1.20;1.10;;;23.20;99.90;;;;;;20795438;28;20186;-68
2021/06/10 23:58:03;;;;;;;1.97;1.23;;;23.00;99.90;;;;;;20775557;28;20356;-67
